Time;durP1;ratioP1;P1;durP2;ratioP2;P2;SDS_P1;SDS_P2;PMS_P1;PMS_P2;Temp;Humidity;BMP_temperature;BMP_pressure;BME280_temperature;BME280_humidity;BME280_pressure;Samples;Min_cycle;Max_cycle;Signal;HPM_P1;HPM_P2
2022/12/21 00:00:53;;;;;;;13.43;4.28;;;;;;;;;;5123617;28;20030;-70
2022/12/21 00:03:19;;;;;;;11.77;4.32;;;;;;;;;;5123332;28;20027;-71
2022/12/21 00:05:44;;;;;;;15.32;4.43;;;;;;;;;;5123511;28;20016;-69
2022/12/21 00:08:10;;;;;;;14.85;4.35;;;;;;;;;;5123608;28;20011;-69
2022/12/21 00:10:35;;;;;;;12.70;3.88;;;;;;;;;;5123354;28;20020;-70
2022/12/21 00:13:00;;;;;;;15.80;4.45;;;;;;;;;;5123422;27;20372;-70
2022/12/21 00:15:26;;;;;;;15.60;3.80;;;;;;;;;;5123458;28;20043;-70
2022/12/21 00:17:52;;;;;;;14.70;4.35;;;;;;;;;;5123822;28;20043;-71
2022/12/21 00:20:17;;;;;;;20.17;4.80;;;;;;;;;;5123286;28;20023;-71
2022/12/21 00:22:43;;;;;;;16.00;5.05;;;;;;;;;;5123430;28;20053;-70
2022/12/21 00:25:08;;;;;;;16.05;5.40;;;;;;;;;;5122697;28;20026;-70
2022/12/21 00:27:34;;;;;;;15.13;5.07;;;;;;;;;;5123181;28;20034;-71
2022/12/21 00:29:59;;;;;;;21.08;9.23;;;;;;;;;;5122937;28;20035;-69
2022/12/21 00:32:24;;;;;;;20.17;8.98;;;;;;;;;;5123372;28;20099;-69
2022/12/21 00:34:50;;;;;;;23.63;8.38;;;;;;;;;;5123502;28;20222;-69
2022/12/21 00:37:15;;;;;;;15.93;8.57;;;;;;;;;;5121903;28;20023;-70
2022/12/21 00:39:40;;;;;;;20.25;9.65;;;;;;;;;;5123121;28;20031;-71
2022/12/21 00:42:06;;;;;;;21.30;9.73;;;;;;;;;;5123347;28;20050;-71
2022/12/21 00:44:31;;;;;;;20.80;9.85;;;;;;;;;;5123513;28;20034;-70
2022/12/21 00:46:56;;;;;;;22.85;10.18;;;;;;;;;;5123156;28;20327;-70
2022/12/21 00:49:22;;;;;;;20.17;9.77;;;;;;;;;;5123022;28;20102;-70
2022/12/21 00:51:47;;;;;;;24.13;8.90;;;;;;;;;;5122492;28;20032;-70
2022/12/21 00:54:13;;;;;;;21.58;8.18;;;;;;;;;;5122352;28;20029;-71
2022/12/21 00:56:38;;;;;;;20.48;6.75;;;;;;;;;;5122780;28;20028;-70
2022/12/21 00:59:03;;;;;;;17.13;5.60;;;;;;;;;;5122728;28;20031;-71
2022/12/21 01:01:31;;;;;;;17.27;5.55;;;;;;;;;;5121505;28;20059;-71
2022/12/21 01:03:58;;;;;;;14.40;5.65;;;;;;;;;;5122719;28;20468;-70
2022/12/21 01:06:27;;;;;;;17.45;5.40;;;;;;;;;;5122447;28;20331;-71
2022/12/21 01:08:54;;;;;;;17.85;5.22;;;;;;;;;;5122532;28;20050;-70
2022/12/21 01:11:20;;;;;;;20.77;5.10;;;;;;;;;;5122626;28;20039;-72
2022/12/21 01:13:46;;;;;;;20.48;4.93;;;;;;;;;;5121684;28;20319;-70
2022/12/21 01:16:20;;;;;;;15.70;4.50;;;;;;;;;;5120684;28;20428;-69
2022/12/21 01:18:46;;;;;;;17.40;4.80;;;;;;;;;;5121476;28;20019;-71
2022/12/21 01:21:23;;;;;;;15.63;4.78;;;;;;;;;;5121223;28;20069;-70
2022/12/21 01:23:49;;;;;;;15.38;5.03;;;;;;;;;;5120952;28;20079;-71
2022/12/21 01:26:15;;;;;;;19.77;5.25;;;;;;;;;;5120984;28;20197;-70
2022/12/21 01:28:40;;;;;;;13.35;5.20;;;;;;;;;;5122526;28;20068;-70
2022/12/21 01:31:06;;;;;;;17.80;5.88;;;;;;;;;;5122059;28;20031;-70
2022/12/21 01:33:32;;;;;;;18.98;4.88;;;;;;;;;;5121880;28;20034;-71
2022/12/21 01:36:03;;;;;;;18.10;5.63;;;;;;;;;;5121985;28;20218;-72
2022/12/21 01:38:28;;;;;;;;;;;;;;;;;;5122366;28;20023;-76
2022/12/21 01:40:53;;;;;;;17.77;5.68;;;;;;;;;;5121022;28;19916;-71
2022/12/21 01:43:43;;;;;;;22.35;6.40;;;;;;;;;;5121114;28;20023;-71
2022/12/21 01:46:15;;;;;;;16.42;5.45;;;;;;;;;;5121029;28;20318;-71
2022/12/21 01:48:45;;;;;;;15.60;4.70;;;;;;;;;;5121195;28;20020;-71
2022/12/21 01:51:12;;;;;;;21.67;4.90;;;;;;;;;;5119629;28;20218;-70
2022/12/21 01:53:43;;;;;;;16.00;4.65;;;;;;;;;;5120908;28;20028;-70
2022/12/21 01:56:11;;;;;;;14.38;4.95;;;;;;;;;;5119953;28;20031;-71
2022/12/21 01:58:39;;;;;;;18.85;4.85;;;;;;;;;;5122102;28;20099;-70
2022/12/21 02:01:06;;;;;;;15.40;4.68;;;;;;;;;;5122052;28;20031;-71
2022/12/21 02:03:39;;;;;;;13.45;4.43;;;;;;;;;;5122523;28;20047;-70
2022/12/21 02:06:15;;;;;;;23.52;5.38;;;;;;;;;;5121728;28;20284;-72
2022/12/21 02:08:41;;;;;;;20.33;5.38;;;;;;;;;;5121990;28;20393;-71
2022/12/21 02:11:08;;;;;;;14.32;5.05;;;;;;;;;;5121859;28;20059;-71
2022/12/21 02:13:34;;;;;;;13.25;4.63;;;;;;;;;;5121106;28;20023;-71
2022/12/21 02:16:00;;;;;;;16.67;4.80;;;;;;;;;;5121291;28;20030;-69
2022/12/21 02:18:53;;;;;;;13.55;4.70;;;;;;;;;;5121982;28;20047;-69
2022/12/21 02:21:24;;;;;;;19.90;6.22;;;;;;;;;;5122185;28;20015;-69
2022/12/21 02:24:11;;;;;;;19.25;6.13;;;;;;;;;;5121963;28;20032;-69
2022/12/21 02:26:57;;;;;;;17.45;6.32;;;;;;;;;;5123375;28;20326;-70
2022/12/21 02:29:50;;;;;;;20.58;6.50;;;;;;;;;;5124812;28;20343;-69
2022/12/21 02:32:28;;;;;;;15.68;5.43;;;;;;;;;;5124476;28;20020;-69
2022/12/21 02:35:20;;;;;;;16.20;5.63;;;;;;;;;;5125062;28;20332;-70
2022/12/21 02:38:05;;;;;;;16.10;5.90;;;;;;;;;;5094328;28;20107;-70
2022/12/21 02:41:07;;;;;;;15.35;5.38;;;;;;;;;;5124464;28;20038;-69
2022/12/21 02:46:55;;;;;;;17.25;5.35;;;;;;;;;;5123653;28;20084;-68
2022/12/21 02:49:26;;;;;;;17.50;5.40;;;;;;;;;;5123612;28;20046;-70
2022/12/21 02:52:29;;;;;;;13.27;5.38;;;;;;;;;;5124230;28;20339;-70
2022/12/21 02:55:00;;;;;;;14.68;4.75;;;;;;;;;;5083086;27;20325;-70
2022/12/21 02:57:35;;;;;;;14.07;4.53;;;;;;;;;;5124719;28;20031;-69
2022/12/21 03:00:04;;;;;;;14.60;4.80;;;;;;;;;;5125063;28;20031;-69
2022/12/21 03:03:47;;;;;;;9.57;4.40;;;;;;;;;;5124995;28;20054;-69
2022/12/21 03:06:09;;;;;;;16.13;5.07;;;;;;;;;;5120480;28;20032;-69
2022/12/21 03:08:43;;;;;;;11.68;4.65;;;;;;;;;;5096554;28;20270;-70
2022/12/21 03:11:08;;;;;;;10.90;4.57;;;;;;;;;;5103921;28;20095;-71
2022/12/21 03:13:45;;;;;;;17.38;4.30;;;;;;;;;;5104165;28;20032;-70
2022/12/21 03:16:40;;;;;;;10.23;4.20;;;;;;;;;;5104163;28;20050;-69
2022/12/21 03:19:18;;;;;;;11.82;4.07;;;;;;;;;;5086284;28;20111;-69
2022/12/21 03:22:00;;;;;;;10.43;4.40;;;;;;;;;;5104091;28;20018;-69
2022/12/21 03:24:34;;;;;;;12.95;4.03;;;;;;;;;;5104209;28;20065;-71
2022/12/21 03:27:25;;;;;;;10.05;3.95;;;;;;;;;;5103570;28;20086;-70
2022/12/21 03:29:59;;;;;;;10.23;3.80;;;;;;;;;;5103644;28;20043;-70
2022/12/21 03:32:32;;;;;;;7.80;3.80;;;;;;;;;;5102285;28;20028;-71
2022/12/21 03:34:58;;;;;;;8.95;3.85;;;;;;;;;;5103293;28;20069;-69
2022/12/21 03:37:29;;;;;;;8.50;4.00;;;;;;;;;;5102180;28;20224;-69
2022/12/21 03:39:59;;;;;;;13.68;4.03;;;;;;;;;;5103218;28;20020;-71
2022/12/21 03:42:30;;;;;;;;;;;;;;;;;;5104197;28;20020;-69
2022/12/21 03:44:59;;;;;;;9.60;4.00;;;;;;;;;;5103558;28;19908;-71
2022/12/21 03:47:29;;;;;;;8.65;3.72;;;;;;;;;;5102171;28;20035;-70
2022/12/21 03:50:00;;;;;;;8.77;3.78;;;;;;;;;;5102469;28;20197;-70
2022/12/21 03:52:34;;;;;;;9.55;3.85;;;;;;;;;;5103417;28;20112;-70
2022/12/21 03:55:08;;;;;;;10.77;4.10;;;;;;;;;;5102356;28;20205;-77
2022/12/21 03:57:35;;;;;;;9.40;3.92;;;;;;;;;;5103279;28;20047;-72
2022/12/21 04:00:03;;;;;;;9.52;4.05;;;;;;;;;;5103529;28;20032;-69
2022/12/21 04:02:35;;;;;;;12.30;3.92;;;;;;;;;;5102970;28;20035;-69
2022/12/21 04:05:07;;;;;;;12.80;4.13;;;;;;;;;;5103263;28;20028;-71
2022/12/21 04:07:35;;;;;;;9.70;3.95;;;;;;;;;;5103023;28;20078;-71
2022/12/21 04:10:06;;;;;;;10.35;4.25;;;;;;;;;;5103219;28;20332;-69
2022/12/21 04:12:38;;;;;;;11.18;4.15;;;;;;;;;;5102911;28;20316;-68
2022/12/21 04:15:08;;;;;;;10.25;4.22;;;;;;;;;;5103177;28;20027;-70
2022/12/21 04:17:34;;;;;;;10.82;4.25;;;;;;;;;;5103200;28;20071;-69
2022/12/21 04:19:59;;;;;;;10.95;4.10;;;;;;;;;;5103243;28;20023;-69
2022/12/21 04:28:09;;;;;;;10.65;4.07;;;;;;;;;;5102827;28;20496;-69
2022/12/21 04:30:40;;;;;;;10.43;4.05;;;;;;;;;;5102681;28;20028;-71
2022/12/21 04:33:07;;;;;;;7.80;3.70;;;;;;;;;;5102700;28;20208;-69
2022/12/21 04:35:33;;;;;;;9.25;3.65;;;;;;;;;;5102664;28;20307;-70
2022/12/21 04:37:58;;;;;;;9.30;4.22;;;;;;;;;;5101319;28;20087;-72
2022/12/21 04:40:24;;;;;;;7.47;3.88;;;;;;;;;;5101140;28;20066;-68
2022/12/21 04:42:49;;;;;;;11.88;4.00;;;;;;;;;;5101765;28;20032;-68
2022/12/21 04:45:15;;;;;;;9.25;4.00;;;;;;;;;;5102268;28;20024;-69
2022/12/21 04:47:41;;;;;;;8.00;3.78;;;;;;;;;;5100722;28;20094;-69
2022/12/21 04:50:07;;;;;;;6.13;3.25;;;;;;;;;;5101806;28;20047;-69
2022/12/21 04:52:33;;;;;;;6.63;3.10;;;;;;;;;;5102619;28;20319;-71
2022/12/21 04:54:58;;;;;;;8.57;3.35;;;;;;;;;;5102208;28;20028;-70
2022/12/21 04:57:24;;;;;;;5.00;2.92;;;;;;;;;;5102011;28;20087;-71
2022/12/21 04:59:49;;;;;;;6.90;3.40;;;;;;;;;;5102108;28;20032;-71
2022/12/21 05:02:15;;;;;;;5.68;2.83;;;;;;;;;;5102287;28;20028;-71
2022/12/21 05:04:40;;;;;;;6.80;3.30;;;;;;;;;;5102133;28;20036;-69
2022/12/21 05:07:06;;;;;;;8.65;3.50;;;;;;;;;;5101671;28;20050;-69
2022/12/21 05:09:32;;;;;;;8.18;3.42;;;;;;;;;;5100615;28;20024;-69
2022/12/21 05:11:57;;;;;;;8.82;3.35;;;;;;;;;;5100455;28;20125;-71
2022/12/21 05:14:25;;;;;;;7.72;3.45;;;;;;;;;;5100947;28;20050;-70
2022/12/21 05:16:51;;;;;;;7.63;4.05;;;;;;;;;;5101927;28;20031;-71
2022/12/21 05:19:18;;;;;;;8.18;3.50;;;;;;;;;;5102066;28;20299;-69
2022/12/21 05:21:43;;;;;;;7.30;3.30;;;;;;;;;;5102027;28;20066;-71
2022/12/21 05:24:09;;;;;;;10.82;3.75;;;;;;;;;;5101953;28;20020;-69
2022/12/21 05:26:34;;;;;;;10.35;3.40;;;;;;;;;;5101902;28;20228;-69
2022/12/21 05:28:59;;;;;;;7.70;3.45;;;;;;;;;;5101641;28;20442;-71
2022/12/21 05:31:25;;;;;;;8.48;3.72;;;;;;;;;;5101936;28;20126;-70
2022/12/21 05:33:53;;;;;;;7.45;3.42;;;;;;;;;;5101819;28;20100;-70
2022/12/21 05:36:19;;;;;;;5.55;3.20;;;;;;;;;;5101997;28;20034;-70
2022/12/21 05:38:45;;;;;;;10.45;3.67;;;;;;;;;;5101783;28;20020;-70
2022/12/21 05:41:12;;;;;;;8.40;3.28;;;;;;;;;;5101987;28;20036;-73
2022/12/21 05:43:38;;;;;;;9.13;3.50;;;;;;;;;;5101676;28;20062;-69
2022/12/21 05:46:05;;;;;;;8.45;3.50;;;;;;;;;;5101358;28;20044;-70
2022/12/21 05:48:31;;;;;;;7.85;3.10;;;;;;;;;;5101311;28;20038;-70
2022/12/21 05:50:57;;;;;;;7.55;3.50;;;;;;;;;;5101653;28;20349;-70
2022/12/21 05:53:23;;;;;;;7.22;3.28;;;;;;;;;;5100749;28;20028;-69
2022/12/21 05:55:48;;;;;;;8.65;3.45;;;;;;;;;;5100672;28;20039;-72
2022/12/21 05:58:15;;;;;;;8.02;3.40;;;;;;;;;;5100840;28;20028;-70
2022/12/21 06:00:41;;;;;;;9.00;3.17;;;;;;;;;;5101647;28;20032;-75
2022/12/21 06:03:07;;;;;;;10.02;3.60;;;;;;;;;;5105151;28;20320;-75
2022/12/21 06:05:35;;;;;;;9.13;3.40;;;;;;;;;;5104213;28;20452;-71
2022/12/21 06:08:01;;;;;;;7.20;3.22;;;;;;;;;;5104544;28;20024;-76
2022/12/21 06:10:27;;;;;;;7.97;3.22;;;;;;;;;;5104361;28;20055;-72
2022/12/21 06:12:53;;;;;;;6.43;3.60;;;;;;;;;;5105126;28;20031;-77
2022/12/21 06:15:18;;;;;;;6.25;3.28;;;;;;;;;;5105100;28;20026;-75
2022/12/21 06:17:44;;;;;;;8.52;3.58;;;;;;;;;;5104021;28;20047;-71
2022/12/21 06:20:09;;;;;;;8.02;3.60;;;;;;;;;;5104448;28;20268;-75
2022/12/21 06:22:35;;;;;;;8.38;3.55;;;;;;;;;;5104214;28;20032;-76
2022/12/21 06:25:02;;;;;;;7.68;3.80;;;;;;;;;;5103104;28;20058;-73
2022/12/21 06:27:27;;;;;;;8.07;3.58;;;;;;;;;;5103320;28;20085;-76
2022/12/21 06:29:53;;;;;;;9.43;3.92;;;;;;;;;;5103838;28;20305;-70
2022/12/21 06:32:18;;;;;;;7.72;3.55;;;;;;;;;;5104705;28;20032;-75
2022/12/21 06:34:44;;;;;;;7.03;3.40;;;;;;;;;;5104436;28;20081;-77
2022/12/21 06:37:09;;;;;;;10.90;3.90;;;;;;;;;;5104782;28;20043;-74
2022/12/21 06:39:35;;;;;;;8.73;3.38;;;;;;;;;;5104484;28;20464;-75
2022/12/21 06:42:01;;;;;;;8.00;3.33;;;;;;;;;;5104233;28;20291;-71
2022/12/21 06:44:26;;;;;;;8.45;3.45;;;;;;;;;;5103859;28;20032;-69
2022/12/21 06:46:52;;;;;;;6.90;3.70;;;;;;;;;;5103171;28;20028;-71
2022/12/21 06:49:17;;;;;;;7.28;3.00;;;;;;;;;;5104639;28;20031;-71
2022/12/21 06:51:43;;;;;;;8.23;3.22;;;;;;;;;;5104643;28;20103;-70
2022/12/21 06:54:10;;;;;;;6.97;3.20;;;;;;;;;;5104388;28;20047;-70
2022/12/21 06:56:36;;;;;;;7.85;3.42;;;;;;;;;;5103474;28;20035;-70
2022/12/21 06:59:02;;;;;;;6.35;3.50;;;;;;;;;;5103644;28;20087;-70
2022/12/21 07:01:30;;;;;;;7.75;3.60;;;;;;;;;;5104359;28;20346;-69
2022/12/21 07:03:56;;;;;;;7.07;3.35;;;;;;;;;;5104574;28;20031;-69
2022/12/21 07:06:23;;;;;;;7.75;3.50;;;;;;;;;;5104177;28;20093;-71
2022/12/21 07:08:50;;;;;;;8.05;3.67;;;;;;;;;;5104240;28;20028;-72
2022/12/21 07:11:20;;;;;;;6.25;3.20;;;;;;;;;;5103762;28;20074;-71
2022/12/21 07:13:46;;;;;;;;;;;;;;;;;;5103131;28;20095;-70
2022/12/21 07:16:13;;;;;;;6.22;3.45;;;;;;;;;;5103876;28;19946;-71
2022/12/21 07:18:39;;;;;;;7.32;3.50;;;;;;;;;;5103961;28;20036;-70
2022/12/21 07:21:07;;;;;;;8.68;3.40;;;;;;;;;;5103834;28;20395;-70
2022/12/21 07:23:35;;;;;;;8.57;4.53;;;;;;;;;;5103759;28;20030;-71
2022/12/21 07:26:01;;;;;;;6.18;3.40;;;;;;;;;;5103547;28;20108;-70
2022/12/21 07:28:26;;;;;;;6.97;3.70;;;;;;;;;;5102476;28;20054;-70
2022/12/21 07:31:01;;;;;;;8.95;3.80;;;;;;;;;;5103212;28;20201;-72
2022/12/21 07:33:26;;;;;;;5.93;3.50;;;;;;;;;;5103066;28;20024;-70
2022/12/21 07:35:58;;;;;;;8.25;3.90;;;;;;;;;;5102252;28;20067;-70
2022/12/21 07:38:24;;;;;;;7.57;3.85;;;;;;;;;;5103841;28;20027;-70
2022/12/21 07:40:49;;;;;;;7.80;3.95;;;;;;;;;;5103743;28;20032;-69
2022/12/21 07:43:14;;;;;;;8.75;4.20;;;;;;;;;;5103618;28;20047;-69
2022/12/21 07:45:40;;;;;;;8.25;4.40;;;;;;;;;;5103436;28;20383;-73
2022/12/21 07:48:06;;;;;;;8.75;4.45;;;;;;;;;;5103428;28;20140;-70
2022/12/21 07:50:32;;;;;;;11.13;4.70;;;;;;;;;;5103284;28;20035;-71
2022/12/21 07:53:00;;;;;;;6.90;4.22;;;;;;;;;;5103501;28;20339;-70
2022/12/21 07:55:25;;;;;;;11.27;5.13;;;;;;;;;;5102887;28;20364;-70
2022/12/21 07:57:51;;;;;;;7.50;4.22;;;;;;;;;;5102670;28;20315;-71
2022/12/21 08:00:17;;;;;;;9.18;4.75;;;;;;;;;;5101804;28;20048;-74
2022/12/21 08:02:43;;;;;;;10.98;4.53;;;;;;;;;;5102551;28;20032;-72
2022/12/21 08:05:08;;;;;;;9.32;4.40;;;;;;;;;;5102277;28;20030;-73
2022/12/21 08:07:34;;;;;;;7.50;4.18;;;;;;;;;;5101452;28;20509;-73
2022/12/21 08:09:59;;;;;;;9.73;4.28;;;;;;;;;;5101484;28;20246;-72
2022/12/21 08:12:25;;;;;;;8.57;4.90;;;;;;;;;;5101007;28;20670;-82
2022/12/21 08:14:50;;;;;;;7.30;4.40;;;;;;;;;;5101470;28;20024;-71
2022/12/21 08:17:16;;;;;;;8.00;4.57;;;;;;;;;;5101124;28;20516;-69
2022/12/21 08:19:42;;;;;;;9.57;4.30;;;;;;;;;;5101122;28;20079;-71
2022/12/21 08:22:07;;;;;;;6.60;4.05;;;;;;;;;;5100896;28;20055;-72
2022/12/21 08:24:33;;;;;;;8.88;4.50;;;;;;;;;;5099272;28;20223;-71
2022/12/21 08:26:58;;;;;;;6.70;4.18;;;;;;;;;;5100475;28;20328;-71
2022/12/21 08:29:24;;;;;;;11.20;4.93;;;;;;;;;;5102228;28;20268;-71
2022/12/21 08:31:49;;;;;;;9.63;4.95;;;;;;;;;;5102508;28;20024;-71
2022/12/21 08:34:15;;;;;;;9.43;4.47;;;;;;;;;;5102758;28;20299;-70
2022/12/21 08:36:41;;;;;;;9.82;4.10;;;;;;;;;;5102056;28;20208;-73
2022/12/21 08:39:07;;;;;;;9.98;4.20;;;;;;;;;;5102485;28;20034;-72
2022/12/21 08:41:32;;;;;;;7.35;3.92;;;;;;;;;;5102731;28;20035;-70
2022/12/21 08:43:58;;;;;;;6.95;3.92;;;;;;;;;;5102038;28;20093;-71
2022/12/21 08:46:23;;;;;;;11.93;3.95;;;;;;;;;;5102162;28;20024;-71
2022/12/21 08:48:49;;;;;;;11.25;3.80;;;;;;;;;;5101683;28;20377;-74
2022/12/21 08:51:14;;;;;;;9.10;4.22;;;;;;;;;;5101485;28;20125;-74
2022/12/21 08:53:40;;;;;;;8.90;4.10;;;;;;;;;;5102307;28;20070;-75
2022/12/21 08:56:05;;;;;;;11.63;4.10;;;;;;;;;;5102205;28;20027;-74
2022/12/21 08:58:31;;;;;;;10.98;3.75;;;;;;;;;;5101597;28;20108;-73
2022/12/21 09:00:56;;;;;;;28.25;4.90;;;;;;;;;;5102058;28;20216;-74
2022/12/21 09:03:23;;;;;;;13.35;4.10;;;;;;;;;;5102296;28;20035;-76
2022/12/21 09:05:56;;;;;;;10.50;4.13;;;;;;;;;;5099808;28;20393;-77
2022/12/21 09:08:22;;;;;;;6.53;3.80;;;;;;;;;;5101170;28;20377;-74
2022/12/21 09:10:47;;;;;;;8.43;3.80;;;;;;;;;;5100066;28;20024;-74
2022/12/21 09:13:13;;;;;;;6.38;3.72;;;;;;;;;;5101655;28;20024;-75
2022/12/21 09:15:42;;;;;;;9.85;4.03;;;;;;;;;;5101942;28;20107;-72
2022/12/21 09:18:09;;;;;;;9.85;4.00;;;;;;;;;;5097910;28;20036;-72
2022/12/21 09:20:34;;;;;;;9.35;4.05;;;;;;;;;;5100246;28;20028;-73
2022/12/21 09:23:00;;;;;;;6.28;3.55;;;;;;;;;;5100556;28;20388;-73
2022/12/21 09:25:25;;;;;;;6.65;3.60;;;;;;;;;;5099077;28;20055;-73
2022/12/21 09:27:50;;;;;;;7.70;4.18;;;;;;;;;;5101125;28;20247;-73
2022/12/21 09:30:16;;;;;;;10.90;4.30;;;;;;;;;;5100468;28;20193;-73
2022/12/21 09:32:41;;;;;;;25.95;5.18;;;;;;;;;;5098053;28;20027;-73
2022/12/21 09:35:07;;;;;;;14.13;4.18;;;;;;;;;;5095256;28;20118;-74
2022/12/21 09:37:33;;;;;;;8.57;4.32;;;;;;;;;;5102218;28;20028;-72
2022/12/21 09:39:59;;;;;;;13.35;4.18;;;;;;;;;;5103620;28;20269;-73
2022/12/21 09:42:36;;;;;;;9.85;4.00;;;;;;;;;;5103300;28;20027;-74
2022/12/21 09:45:19;;;;;;;8.05;3.38;;;;;;;;;;5104085;28;20039;-73
2022/12/21 09:48:02;;;;;;;11.13;3.53;;;;;;;;;;5096215;28;20035;-74
2022/12/21 09:50:41;;;;;;;10.45;3.60;;;;;;;;;;5105417;28;20051;-72
2022/12/21 09:53:17;;;;;;;11.05;4.00;;;;;;;;;;5105028;28;20063;-71
2022/12/21 09:55:46;;;;;;;9.25;4.10;;;;;;;;;;5105555;28;20042;-71
2022/12/21 09:58:22;;;;;;;10.50;4.05;;;;;;;;;;5104647;28;20217;-71
2022/12/21 10:00:57;;;;;;;14.25;4.70;;;;;;;;;;5104484;28;20024;-71
2022/12/21 10:03:44;;;;;;;11.32;4.10;;;;;;;;;;5105255;28;20073;-72
2022/12/21 10:06:18;;;;;;;12.00;4.47;;;;;;;;;;5095538;28;20361;-71
2022/12/21 10:08:43;;;;;;;8.25;3.67;;;;;;;;;;5093972;28;20024;-74
2022/12/21 10:11:18;;;;;;;7.53;4.07;;;;;;;;;;5093834;28;20035;-75
2022/12/21 10:14:01;;;;;;;8.55;4.03;;;;;;;;;;5093763;28;20020;-72
2022/12/21 10:16:57;;;;;;;9.30;4.20;;;;;;;;;;5093819;28;20063;-74
2022/12/21 10:19:55;;;;;;;10.43;4.68;;;;;;;;;;5085648;28;20093;-81
2022/12/21 10:22:29;;;;;;;9.43;4.15;;;;;;;;;;5093712;28;20089;-69
2022/12/21 10:25:01;;;;;;;9.07;4.03;;;;;;;;;;5093197;28;20051;-70
2022/12/21 10:27:44;;;;;;;9.25;4.25;;;;;;;;;;5093284;28;20032;-70
2022/12/21 10:30:15;;;;;;;8.95;4.82;;;;;;;;;;5094384;28;20539;-71
2022/12/21 10:32:45;;;;;;;22.75;4.63;;;;;;;;;;5093498;28;20369;-71
2022/12/21 10:35:42;;;;;;;9.53;4.33;;;;;;;;;;5093571;28;20430;-71
2022/12/21 10:38:15;;;;;;;8.48;3.83;;;;;;;;;;5048031;28;20039;-72
2022/12/21 10:40:45;;;;;;;7.63;3.85;;;;;;;;;;5093616;28;20488;-71
2022/12/21 10:43:12;;;;;;;8.40;3.97;;;;;;;;;;5094227;28;20039;-73
2022/12/21 10:45:38;;;;;;;9.73;3.97;;;;;;;;;;5099162;28;20032;-70
2022/12/21 10:48:03;;;;;;;10.55;4.30;;;;;;;;;;5092955;28;20388;-71
2022/12/21 10:50:34;;;;;;;5.93;3.63;;;;;;;;;;5093375;28;20489;-70
2022/12/21 10:53:18;;;;;;;9.13;4.00;;;;;;;;;;5093322;28;20028;-70
2022/12/21 10:55:44;;;;;;;8.00;3.67;;;;;;;;;;5092368;28;20020;-71
2022/12/21 10:58:20;;;;;;;7.50;3.20;;;;;;;;;;5098527;28;20119;-71
2022/12/21 11:00:56;;;;;;;6.72;3.22;;;;;;;;;;5103173;28;20028;-72
2022/12/21 11:03:31;;;;;;;8.18;3.15;;;;;;;;;;5103896;28;20205;-70
2022/12/21 11:05:57;;;;;;;8.80;3.33;;;;;;;;;;5104409;28;20093;-71
2022/12/21 11:08:26;;;;;;;5.75;3.20;;;;;;;;;;5103237;28;20040;-70
2022/12/21 11:10:55;;;;;;;8.15;3.10;;;;;;;;;;5103758;28;20032;-69
2022/12/21 11:13:30;;;;;;;6.10;2.80;;;;;;;;;;5103699;28;20027;-70
2022/12/21 11:16:09;;;;;;;6.72;3.08;;;;;;;;;;5103189;28;20051;-71
2022/12/21 11:18:36;;;;;;;5.10;2.55;;;;;;;;;;5103020;28;20215;-71
2022/12/21 11:21:04;;;;;;;5.38;2.60;;;;;;;;;;5103556;28;20098;-71
2022/12/21 11:23:30;;;;;;;8.00;2.63;;;;;;;;;;5103908;28;20051;-72
2022/12/21 11:25:56;;;;;;;9.25;2.58;;;;;;;;;;5103218;28;20048;-72
2022/12/21 11:28:22;;;;;;;5.93;2.80;;;;;;;;;;5103430;28;20015;-73
2022/12/21 11:30:55;;;;;;;6.30;2.60;;;;;;;;;;5103360;28;20035;-69
2022/12/21 11:33:21;;;;;;;5.20;2.58;;;;;;;;;;5101665;28;20020;-69
2022/12/21 11:36:05;;;;;;;4.07;2.00;;;;;;;;;;5095264;28;20047;-69
2022/12/21 11:38:34;;;;;;;3.40;1.48;;;;;;;;;;5093814;28;20020;-70
2022/12/21 11:41:00;;;;;;;4.15;1.80;;;;;;;;;;5096512;28;20020;-71
2022/12/21 11:43:25;;;;;;;3.97;1.70;;;;;;;;;;5096572;28;20051;-71
2022/12/21 11:46:31;;;;;;;4.15;1.80;;;;;;;;;;5097303;28;20069;-71
2022/12/21 11:49:27;;;;;;;5.15;1.98;;;;;;;;;;5093306;28;20032;-71
2022/12/21 11:52:31;;;;;;;3.63;1.50;;;;;;;;;;5092257;28;20039;-76
2022/12/21 11:55:21;;;;;;;6.78;1.55;;;;;;;;;;5046746;28;20055;-72
2022/12/21 11:58:21;;;;;;;2.92;1.20;;;;;;;;;;5090320;28;20512;-74
2022/12/21 12:01:13;;;;;;;3.38;1.60;;;;;;;;;;5092117;28;20028;-72
2022/12/21 12:03:57;;;;;;;6.07;1.50;;;;;;;;;;5093862;28;20028;-72
2022/12/21 12:07:08;;;;;;;4.00;1.50;;;;;;;;;;5092500;28;20408;-72
2022/12/21 12:09:59;;;;;;;4.30;1.40;;;;;;;;;;5091442;28;20028;-70
2022/12/21 12:12:33;;;;;;;4.68;1.20;;;;;;;;;;5091471;28;20055;-70
2022/12/21 12:15:30;;;;;;;3.35;1.25;;;;;;;;;;5091630;28;20020;-71
2022/12/21 12:18:16;;;;;;;6.38;1.80;;;;;;;;;;5093364;28;20394;-76
2022/12/21 12:20:59;;;;;;;4.35;1.38;;;;;;;;;;5092574;28;20131;-73
2022/12/21 12:23:58;;;;;;;3.92;1.48;;;;;;;;;;5093583;28;20308;-73
2022/12/21 12:26:51;;;;;;;13.65;3.00;;;;;;;;;;5099542;28;20224;-70
2022/12/21 12:29:35;;;;;;;6.50;2.00;;;;;;;;;;5113183;28;20080;-74
2022/12/21 12:32:34;;;;;;;6.45;1.80;;;;;;;;;;5121344;28;20043;-72
2022/12/21 12:35:00;;;;;;;3.25;1.33;;;;;;;;;;5119896;28;20039;-75
2022/12/21 12:37:51;;;;;;;1.88;1.00;;;;;;;;;;5111711;28;20027;-74
2022/12/21 12:40:42;;;;;;;3.63;0.82;;;;;;;;;;5076569;28;20032;-75
2022/12/21 12:43:14;;;;;;;3.45;1.33;;;;;;;;;;5114341;28;20499;-79
2022/12/21 12:45:59;;;;;;;2.80;1.40;;;;;;;;;;5121230;28;20031;-78
2022/12/21 12:48:34;;;;;;;2.30;1.20;;;;;;;;;;5122467;28;20027;-76
2022/12/21 12:51:10;;;;;;;2.00;1.10;;;;;;;;;;5117619;28;20031;-73
2022/12/21 12:53:54;;;;;;;3.00;1.30;;;;;;;;;;5111259;28;20027;-75
2022/12/21 12:56:19;;;;;;;2.20;1.17;;;;;;;;;;5122693;28;20020;-81
2022/12/21 12:59:06;;;;;;;3.03;1.17;;;;;;;;;;5122381;28;20363;-78
2022/12/21 13:01:40;;;;;;;2.08;1.00;;;;;;;;;;5122328;28;20309;-77
2022/12/21 13:04:28;;;;;;;2.97;1.20;;;;;;;;;;5110634;28;20067;-73
2022/12/21 13:07:15;;;;;;;3.03;1.02;;;;;;;;;;5091077;28;20027;-72
2022/12/21 13:10:02;;;;;;;2.78;1.10;;;;;;;;;;5092688;28;20060;-75
2022/12/21 13:12:48;;;;;;;2.40;0.80;;;;;;;;;;5109748;28;20024;-75
2022/12/21 13:15:20;;;;;;;4.85;1.10;;;;;;;;;;5111296;28;20055;-73
2022/12/21 13:18:04;;;;;;;2.00;1.10;;;;;;;;;;5111038;28;20132;-74
2022/12/21 13:20:30;;;;;;;1.92;1.00;;;;;;;;;;5110516;28;20028;-73
2022/12/21 13:23:04;;;;;;;1.92;0.98;;;;;;;;;;5112633;28;20020;-72
2022/12/21 13:25:44;;;;;;;3.17;1.02;;;;;;;;;;5110601;28;20044;-73
2022/12/21 13:28:19;;;;;;;1.88;0.90;;;;;;;;;;5111441;28;20637;-71
2022/12/21 13:30:49;;;;;;;1.77;0.80;;;;;;;;;;5110828;28;20065;-72
2022/12/21 13:33:17;;;;;;;4.15;1.20;;;;;;;;;;5111104;28;20544;-71
2022/12/21 13:36:01;;;;;;;4.10;1.00;;;;;;;;;;5110974;28;20088;-72
2022/12/21 13:38:36;;;;;;;1.42;0.93;;;;;;;;;;5111206;28;20043;-72
2022/12/21 13:41:06;;;;;;;2.05;0.80;;;;;;;;;;5110458;28;20027;-73
2022/12/21 13:43:40;;;;;;;2.70;0.90;;;;;;;;;;5109525;28;20384;-72
2022/12/21 13:46:07;;;;;;;4.35;1.00;;;;;;;;;;5110711;28;20055;-72
2022/12/21 13:48:40;;;;;;;3.03;0.70;;;;;;;;;;5110808;28;20028;-73
2022/12/21 13:51:36;;;;;;;1.55;0.88;;;;;;;;;;5110576;28;20038;-72
2022/12/21 13:54:26;;;;;;;2.88;1.10;;;;;;;;;;5120553;28;20028;-72
2022/12/21 13:57:26;;;;;;;4.35;1.20;;;;;;;;;;5110641;28;20534;-72
2022/12/21 14:00:01;;;;;;;1.58;0.75;;;;;;;;;;5110161;28;20106;-72
2022/12/21 14:02:55;;;;;;;1.05;0.70;;;;;;;;;;5115350;28;20087;-74
2022/12/21 14:05:27;;;;;;;1.13;0.60;;;;;;;;;;5121634;28;20024;-72
2022/12/21 14:08:10;;;;;;;1.58;0.60;;;;;;;;;;5121478;28;20032;-73
2022/12/21 14:11:07;;;;;;;2.30;0.85;;;;;;;;;;5121511;28;20032;-73
2022/12/21 14:13:52;;;;;;;3.13;1.15;;;;;;;;;;5121500;28;20136;-72
2022/12/21 14:16:30;;;;;;;3.22;1.00;;;;;;;;;;5099824;28;20403;-72
2022/12/21 14:18:59;;;;;;;1.98;1.08;;;;;;;;;;5097553;28;20020;-74
2022/12/21 14:21:30;;;;;;;1.23;0.68;;;;;;;;;;5100431;28;20020;-75
2022/12/21 14:23:59;;;;;;;1.27;0.80;;;;;;;;;;5100277;28;20022;-74
2022/12/21 14:26:47;;;;;;;1.48;0.75;;;;;;;;;;5093357;28;20063;-76
2022/12/21 14:29:19;;;;;;;2.90;0.80;;;;;;;;;;5100122;28;20107;-74
2022/12/21 14:32:03;;;;;;;1.33;0.70;;;;;;;;;;5097313;28;20031;-72
2022/12/21 14:34:58;;;;;;;1.42;0.70;;;;;;;;;;5095969;28;20024;-72
2022/12/21 14:37:25;;;;;;;1.20;0.73;;;;;;;;;;5119422;28;20046;-73
2022/12/21 14:40:13;;;;;;;2.25;0.80;;;;;;;;;;5124665;28;20223;-71
2022/12/21 14:42:42;;;;;;;1.90;0.73;;;;;;;;;;5118364;28;20043;-72
2022/12/21 14:45:12;;;;;;;3.22;1.00;;;;;;;;;;5124968;27;20489;-72
2022/12/21 14:47:46;;;;;;;2.03;0.70;;;;;;;;;;5125146;28;20308;-72
2022/12/21 14:50:18;;;;;;;0.80;0.70;;;;;;;;;;5124630;28;20068;-73
2022/12/21 14:53:22;;;;;;;1.30;0.80;;;;;;;;;;5123400;27;20253;-72
2022/12/21 14:56:05;;;;;;;1.88;1.00;;;;;;;;;;5122872;28;20031;-72
2022/12/21 14:58:33;;;;;;;2.63;1.05;;;;;;;;;;5117134;28;20016;-72
2022/12/21 15:01:15;;;;;;;6.28;1.10;;;;;;;;;;5112442;28;20065;-73
2022/12/21 15:03:51;;;;;;;2.30;0.80;;;;;;;;;;5114336;28;20456;-72
2022/12/21 15:06:32;;;;;;;3.03;0.80;;;;;;;;;;5112867;28;20023;-73
2022/12/21 15:09:20;;;;;;;1.60;0.90;;;;;;;;;;5113387;28;20015;-73
2022/12/21 15:11:48;;;;;;;1.67;0.80;;;;;;;;;;5113507;28;20024;-74
2022/12/21 15:14:29;;;;;;;1.55;0.90;;;;;;;;;;5117863;28;20629;-73
2022/12/21 15:16:57;;;;;;;2.83;0.80;;;;;;;;;;5119808;28;20121;-73